createdAt,value
2019-03-31T00:00:09.456Z,23.40
2019-03-31T00:01:09.442Z,23.90
2019-03-31T00:02:09.364Z,24.20
2019-03-31T00:03:09.328Z,25.60
2019-03-31T00:04:09.286Z,24.30
2019-03-31T00:05:09.235Z,25.30
2019-03-31T00:06:09.215Z,24.60
2019-03-31T00:07:09.149Z,24.10
2019-03-31T00:08:09.105Z,23.20
2019-03-31T00:09:09.074Z,25.10
2019-03-31T00:10:09.034Z,25.20
2019-03-31T00:11:09.026Z,24.80
2019-03-31T00:12:08.942Z,25.30
2019-03-31T00:13:08.915Z,25.90
2019-03-31T00:14:08.861Z,26.60
2019-03-31T00:15:08.815Z,26.00
2019-03-31T00:16:08.787Z,26.10
2019-03-31T00:17:08.749Z,26.00
2019-03-31T00:18:08.682Z,26.40
2019-03-31T00:19:08.662Z,25.10
2019-03-31T00:20:08.602Z,26.80
2019-03-31T00:21:08.557Z,26.50
2019-03-31T00:22:08.554Z,27.30
2019-03-31T00:23:08.478Z,27.30
2019-03-31T00:24:08.429Z,25.60
2019-03-31T00:25:08.379Z,26.80
2019-03-31T00:26:08.342Z,26.60
2019-03-31T00:27:08.325Z,27.00
2019-03-31T00:28:08.252Z,26.20
2019-03-31T00:29:08.238Z,26.30
2019-03-31T00:30:08.192Z,25.40
2019-03-31T00:31:21.222Z,26.40
2019-03-31T00:32:08.094Z,25.40
2019-03-31T00:33:08.043Z,25.50
2019-03-31T00:34:08.021Z,25.30
2019-03-31T00:35:07.968Z,27.70
2019-03-31T00:36:07.920Z,28.80
2019-03-31T00:37:08.001Z,28.50
2019-03-31T00:38:07.853Z,27.70
2019-03-31T00:39:07.797Z,27.20
2019-03-31T00:40:07.738Z,28.40
2019-03-31T00:41:07.701Z,27.50
2019-03-31T00:42:07.690Z,27.00
2019-03-31T00:43:07.622Z,27.50
2019-03-31T00:44:07.620Z,26.00
2019-03-31T00:45:07.522Z,26.70
2019-03-31T00:46:07.482Z,27.50
2019-03-31T00:47:07.449Z,28.20
2019-03-31T00:48:07.429Z,27.40
2019-03-31T00:49:07.363Z,27.60
2019-03-31T00:50:07.322Z,28.90
2019-03-31T00:51:07.276Z,29.10
2019-03-31T00:52:07.232Z,29.30
2019-03-31T00:53:07.190Z,27.60
2019-03-31T00:54:07.181Z,28.20
2019-03-31T00:55:07.105Z,28.20
2019-03-31T00:56:07.067Z,29.00
2019-03-31T00:57:07.019Z,28.80
2019-03-31T00:58:06.976Z,28.00
2019-03-31T00:59:06.956Z,27.50
2019-03-31T01:00:06.891Z,28.30
2019-03-31T01:01:06.853Z,27.70
2019-03-31T01:02:06.803Z,27.80
2019-03-31T01:03:06.761Z,28.10
2019-03-31T01:04:06.748Z,27.70
2019-03-31T01:05:06.668Z,28.60
2019-03-31T01:06:06.627Z,28.40
2019-03-31T01:07:06.607Z,28.90
2019-03-31T01:08:06.552Z,29.70
2019-03-31T01:09:06.522Z,30.10
2019-03-31T01:10:06.467Z,29.00
2019-03-31T01:11:06.416Z,29.50
2019-03-31T01:12:06.369Z,28.30
2019-03-31T01:13:06.348Z,29.10
2019-03-31T01:14:06.313Z,29.20
2019-03-31T01:15:06.248Z,27.00
2019-03-31T01:16:06.203Z,29.00
2019-03-31T01:17:06.165Z,29.40
2019-03-31T01:18:06.106Z,28.70
2019-03-31T01:19:06.103Z,29.70
2019-03-31T01:20:06.026Z,29.70
2019-03-31T01:21:05.983Z,28.60
2019-03-31T01:22:05.944Z,29.80
2019-03-31T01:23:05.893Z,29.40
2019-03-31T01:24:05.890Z,29.80
2019-03-31T01:25:05.813Z,31.90
2019-03-31T01:26:05.772Z,31.70
2019-03-31T01:27:05.803Z,29.80
2019-03-31T01:28:05.685Z,30.20
2019-03-31T01:29:05.636Z,31.90
2019-03-31T01:30:05.632Z,30.70
2019-03-31T01:31:05.558Z,30.00
2019-03-31T01:32:05.511Z,30.10
2019-03-31T01:33:05.470Z,31.60
2019-03-31T01:34:05.451Z,28.90
2019-03-31T01:35:05.387Z,29.20
2019-03-31T01:36:05.340Z,28.90
2019-03-31T01:37:05.293Z,29.70
2019-03-31T01:38:05.251Z,30.10
2019-03-31T01:39:05.240Z,29.50
2019-03-31T01:40:05.168Z,29.90
2019-03-31T01:41:05.161Z,29.30
2019-03-31T01:42:05.074Z,29.20
2019-03-31T01:43:05.039Z,30.10
2019-03-31T01:44:05.018Z,28.70
2019-03-31T01:45:04.961Z,28.60
2019-03-31T01:46:04.915Z,28.60
2019-03-31T01:47:04.867Z,28.70
2019-03-31T01:48:04.849Z,27.90
2019-03-31T01:49:04.774Z,28.20
2019-03-31T01:50:04.760Z,28.50
2019-03-31T01:51:04.697Z,28.90
2019-03-31T01:52:04.646Z,30.20
2019-03-31T01:53:04.652Z,29.70
2019-03-31T01:54:04.568Z,29.60
2019-03-31T01:55:04.529Z,29.70
2019-03-31T01:56:04.485Z,29.90
2019-03-31T01:57:04.439Z,29.80
2019-03-31T01:58:04.395Z,28.30
2019-03-31T01:59:04.382Z,28.20
2019-03-31T02:00:04.309Z,28.80
2019-03-31T02:01:04.261Z,29.70
2019-03-31T02:02:04.838Z,29.20
2019-03-31T02:03:04.174Z,29.50
2019-03-31T02:04:04.163Z,30.80
2019-03-31T02:05:04.094Z,29.90
2019-03-31T02:06:04.049Z,29.10
2019-03-31T02:07:04.007Z,29.30
2019-03-31T02:08:03.968Z,29.30
2019-03-31T02:09:03.925Z,28.80
2019-03-31T02:10:03.908Z,29.00
2019-03-31T02:11:03.881Z,29.40
2019-03-31T02:12:03.800Z,30.50
2019-03-31T02:13:03.753Z,30.30
2019-03-31T02:14:03.727Z,30.20
2019-03-31T02:15:03.661Z,28.70
2019-03-31T02:16:03.626Z,28.70
2019-03-31T02:17:03.609Z,28.80
2019-03-31T02:18:03.539Z,29.10
2019-03-31T02:19:03.509Z,29.40
2019-03-31T02:20:03.452Z,29.60
2019-03-31T02:21:03.406Z,29.60
2019-03-31T02:22:03.365Z,29.30
2019-03-31T02:23:03.349Z,29.70
2019-03-31T02:24:03.284Z,29.60
2019-03-31T02:25:03.247Z,29.30
2019-03-31T02:26:03.196Z,29.80
2019-03-31T02:27:03.148Z,30.50
2019-03-31T02:28:03.101Z,29.80
2019-03-31T02:29:03.087Z,29.90
2019-03-31T02:30:03.033Z,30.00
2019-03-31T02:31:02.979Z,30.60
2019-03-31T02:32:02.943Z,30.80
2019-03-31T02:33:02.907Z,30.00
2019-03-31T02:34:02.844Z,32.10
2019-03-31T02:35:02.803Z,30.20
2019-03-31T02:36:02.761Z,32.20
2019-03-31T02:37:02.725Z,31.50
2019-03-31T02:38:02.698Z,32.90
2019-03-31T02:39:02.638Z,30.80
2019-03-31T02:40:02.622Z,31.60
2019-03-31T02:41:02.540Z,30.70
2019-03-31T02:42:02.521Z,29.30
2019-03-31T02:43:02.459Z,31.00
2019-03-31T02:44:02.494Z,32.50
2019-03-31T02:45:02.402Z,30.50
2019-03-31T02:46:02.339Z,32.40
2019-03-31T02:47:02.282Z,31.70
2019-03-31T02:48:02.243Z,30.20
2019-03-31T02:49:02.218Z,31.50
2019-03-31T02:50:02.169Z,33.00
2019-03-31T02:51:02.139Z,30.10
2019-03-31T02:52:02.083Z,32.60
2019-03-31T02:53:02.054Z,31.40
2019-03-31T02:54:01.978Z,31.90
2019-03-31T02:55:01.978Z,33.40
2019-03-31T02:56:02.026Z,33.20
2019-03-31T02:57:01.916Z,33.20
2019-03-31T02:58:01.826Z,33.50
2019-03-31T02:59:01.893Z,34.40
2019-03-31T03:00:01.767Z,36.30
2019-03-31T03:01:01.687Z,39.80
2019-03-31T03:02:01.690Z,31.50
2019-03-31T03:03:01.594Z,40.90
2019-03-31T03:04:01.599Z,34.40
2019-03-31T03:05:17.933Z,38.80
2019-03-31T03:06:01.463Z,44.20
2019-03-31T03:07:01.424Z,39.80
2019-03-31T03:08:01.402Z,50.80
2019-03-31T03:09:01.337Z,44.30
2019-03-31T03:10:01.294Z,37.30
2019-03-31T03:11:01.251Z,46.80
2019-03-31T03:12:01.230Z,57.50
2019-03-31T03:13:01.187Z,48.10
2019-03-31T03:14:01.124Z,48.90
2019-03-31T03:15:01.087Z,48.10
2019-03-31T03:16:01.039Z,42.80
2019-03-31T03:17:00.986Z,55.00
2019-03-31T03:18:00.942Z,54.10
2019-03-31T03:19:00.928Z,52.50
2019-03-31T03:20:00.866Z,51.40
2019-03-31T03:21:00.818Z,50.30
2019-03-31T03:22:00.777Z,54.20
2019-03-31T03:23:00.732Z,53.30
2019-03-31T03:24:00.721Z,53.90
2019-03-31T03:25:00.653Z,54.50
2019-03-31T03:26:00.624Z,53.90
2019-03-31T03:27:00.556Z,54.50
2019-03-31T03:28:00.520Z,53.40
2019-03-31T03:29:00.492Z,55.50
2019-03-31T03:30:00.704Z,55.40
2019-03-31T03:31:00.788Z,54.90
2019-03-31T03:32:00.341Z,56.60
2019-03-31T03:33:15.115Z,56.50
2019-03-31T03:34:00.293Z,55.50
2019-03-31T03:35:01.001Z,55.40
2019-03-31T03:36:00.182Z,55.60
2019-03-31T03:37:00.135Z,55.60
2019-03-31T03:38:00.085Z,55.80
2019-03-31T03:39:00.056Z,56.50
2019-03-31T03:40:00.027Z,57.30
2019-03-31T03:40:59.958Z,56.90
2019-03-31T03:41:59.951Z,56.50
2019-03-31T03:42:59.884Z,56.50
2019-03-31T03:44:02.342Z,57.00
2019-03-31T03:44:59.814Z,57.40
2019-03-31T03:45:59.744Z,57.70
2019-03-31T03:46:59.738Z,56.70
2019-03-31T03:47:59.667Z,58.40
2019-03-31T03:48:59.713Z,57.60
2019-03-31T03:49:59.579Z,59.00
2019-03-31T03:50:59.526Z,57.90
2019-03-31T03:51:59.486Z,58.00
2019-03-31T03:52:59.475Z,58.00
2019-03-31T03:53:59.466Z,56.70
2019-03-31T03:54:59.478Z,57.80
2019-03-31T03:55:59.349Z,60.20
2019-03-31T03:56:59.305Z,59.30
2019-03-31T03:57:59.236Z,58.20
2019-03-31T03:58:59.187Z,57.90
2019-03-31T03:59:59.146Z,58.70
2019-03-31T04:00:59.127Z,60.00
2019-03-31T04:01:59.099Z,59.30
2019-03-31T04:02:59.027Z,59.50
2019-03-31T04:03:58.977Z,59.90
2019-03-31T04:04:58.946Z,60.90
2019-03-31T04:05:58.899Z,59.30
2019-03-31T04:06:58.870Z,59.90
2019-03-31T04:07:58.838Z,62.80
2019-03-31T04:08:58.769Z,59.90
2019-03-31T04:09:58.721Z,60.70
2019-03-31T04:10:58.682Z,59.80
2019-03-31T04:11:58.666Z,60.60
2019-03-31T04:12:58.607Z,61.60
2019-03-31T04:13:58.568Z,61.30
2019-03-31T04:14:58.534Z,60.50
2019-03-31T04:15:58.476Z,62.20
2019-03-31T04:16:58.469Z,63.30
2019-03-31T04:17:58.395Z,61.90
2019-03-31T04:18:58.353Z,61.90
2019-03-31T04:19:58.307Z,60.50
2019-03-31T04:20:58.261Z,62.10
2019-03-31T04:21:58.215Z,62.00
2019-03-31T04:22:58.217Z,62.20
2019-03-31T04:23:58.183Z,63.20
2019-03-31T04:24:58.099Z,63.10
2019-03-31T04:25:58.052Z,61.50
2019-03-31T04:26:58.010Z,62.50
2019-03-31T04:27:57.973Z,63.50
2019-03-31T04:28:57.945Z,64.00
2019-03-31T04:29:57.907Z,63.10
2019-03-31T04:30:57.835Z,63.90
2019-03-31T04:31:57.797Z,62.90
2019-03-31T04:32:57.857Z,63.10
2019-03-31T04:33:57.715Z,63.30
2019-03-31T04:34:57.670Z,64.20
2019-03-31T04:35:57.644Z,64.20
2019-03-31T04:36:57.586Z,63.40
2019-03-31T04:37:57.548Z,63.90
2019-03-31T04:39:00.030Z,63.40
2019-03-31T04:39:57.464Z,63.00
2019-03-31T04:40:57.429Z,63.70
2019-03-31T04:41:57.368Z,63.60
2019-03-31T04:42:57.325Z,64.60
2019-03-31T04:43:57.284Z,64.70
2019-03-31T04:44:57.251Z,65.00
2019-03-31T04:45:57.228Z,63.40
2019-03-31T04:46:57.192Z,65.60
2019-03-31T04:47:57.116Z,64.60
2019-03-31T04:48:57.071Z,65.80
2019-03-31T04:49:57.024Z,65.40
2019-03-31T04:50:57.013Z,64.10
2019-03-31T04:51:56.948Z,64.30
2019-03-31T04:52:56.896Z,65.30
2019-03-31T04:53:56.861Z,63.10
2019-03-31T04:54:56.818Z,64.60
2019-03-31T04:55:56.773Z,63.90
2019-03-31T04:56:56.755Z,65.30
2019-03-31T04:57:56.696Z,66.30
2019-03-31T04:58:56.689Z,64.40
2019-03-31T04:59:56.608Z,65.20
2019-03-31T05:00:56.560Z,65.70
2019-03-31T05:01:56.519Z,67.10
2019-03-31T05:02:56.489Z,68.20
2019-03-31T05:04:04.622Z,66.70
2019-03-31T05:04:56.423Z,67.40
2019-03-31T05:05:56.358Z,66.30
2019-03-31T05:06:56.314Z,66.60
2019-03-31T05:07:56.288Z,67.80
2019-03-31T05:08:56.238Z,67.60
2019-03-31T05:09:56.179Z,66.60
2019-03-31T05:10:56.148Z,68.30
2019-03-31T05:11:56.123Z,67.00
2019-03-31T05:12:56.099Z,67.50
2019-03-31T05:13:56.023Z,66.90
2019-03-31T05:14:55.971Z,67.40
2019-03-31T05:15:55.923Z,66.30
2019-03-31T05:16:55.894Z,67.50
2019-03-31T05:17:55.852Z,67.20
2019-03-31T05:18:55.837Z,68.20
2019-03-31T05:19:55.760Z,68.80
2019-03-31T05:20:55.736Z,69.00
2019-03-31T05:21:55.669Z,68.60
2019-03-31T05:22:55.636Z,69.10
2019-03-31T05:23:55.597Z,68.80
2019-03-31T05:24:55.574Z,69.00
2019-03-31T05:25:55.524Z,68.60
2019-03-31T05:26:55.468Z,70.30
2019-03-31T05:27:55.416Z,68.20
2019-03-31T05:28:55.392Z,68.00
2019-03-31T05:29:55.333Z,70.30
2019-03-31T05:30:55.323Z,70.80
2019-03-31T05:31:55.246Z,68.60
2019-03-31T05:32:55.209Z,69.00
2019-03-31T05:33:55.160Z,69.10
2019-03-31T05:34:55.117Z,70.70
2019-03-31T05:35:55.074Z,68.50
2019-03-31T05:36:55.059Z,68.50
2019-03-31T05:37:54.998Z,67.00
2019-03-31T05:38:54.947Z,68.40
2019-03-31T05:39:54.906Z,70.30
2019-03-31T05:40:54.866Z,68.70
2019-03-31T05:41:54.850Z,67.70
2019-03-31T05:42:54.790Z,69.60
2019-03-31T05:44:05.208Z,71.70
2019-03-31T05:44:54.698Z,69.60
2019-03-31T05:45:54.651Z,69.50
2019-03-31T05:46:54.639Z,68.30
2019-03-31T05:47:54.565Z,69.40
2019-03-31T05:48:54.530Z,68.90
2019-03-31T05:49:54.496Z,69.50
2019-03-31T05:50:54.459Z,69.80
2019-03-31T05:51:54.401Z,67.30
2019-03-31T05:52:54.381Z,68.60
2019-03-31T05:53:54.319Z,68.90
2019-03-31T05:54:54.283Z,67.30
2019-03-31T05:55:54.266Z,67.90
2019-03-31T05:56:54.189Z,68.60
2019-03-31T05:57:54.142Z,61.30
2019-03-31T05:58:54.106Z,64.60
2019-03-31T05:59:54.067Z,65.60
2019-03-31T06:00:54.028Z,62.20
2019-03-31T06:01:54.007Z,62.30
2019-03-31T06:02:53.967Z,62.30
2019-03-31T06:03:53.900Z,63.10
2019-03-31T06:04:53.848Z,63.80
2019-03-31T06:05:53.806Z,64.20
2019-03-31T06:06:53.769Z,64.50
2019-03-31T06:07:53.738Z,62.80
2019-03-31T06:08:53.718Z,63.30
2019-03-31T06:09:53.645Z,62.90
2019-03-31T06:10:53.625Z,62.70
2019-03-31T06:11:53.796Z,62.20
2019-03-31T06:12:53.522Z,59.00
2019-03-31T06:13:53.478Z,61.30
2019-03-31T06:14:53.478Z,59.50
2019-03-31T06:15:53.400Z,60.70
2019-03-31T06:16:53.348Z,59.90
2019-03-31T06:17:53.315Z,59.50
2019-03-31T06:18:53.266Z,61.20
2019-03-31T06:19:53.248Z,60.80
2019-03-31T06:20:53.193Z,59.60
2019-03-31T06:21:53.150Z,58.80
2019-03-31T06:22:53.112Z,59.10
2019-03-31T06:23:53.094Z,58.40
2019-03-31T06:24:53.043Z,59.50
2019-03-31T06:25:52.979Z,56.00
2019-03-31T06:26:52.945Z,57.30
2019-03-31T06:27:52.906Z,60.70
2019-03-31T06:28:52.858Z,59.20
2019-03-31T06:29:52.837Z,58.70
2019-03-31T06:30:52.776Z,58.80
2019-03-31T06:31:52.732Z,58.30
2019-03-31T06:32:55.377Z,59.90
2019-03-31T06:33:52.660Z,60.40
2019-03-31T06:34:52.647Z,60.60
2019-03-31T06:35:52.581Z,59.80
2019-03-31T06:36:52.533Z,59.50
2019-03-31T06:37:52.492Z,60.10
2019-03-31T06:38:52.450Z,60.50
2019-03-31T06:39:52.407Z,59.80
2019-03-31T06:40:52.398Z,58.80
2019-03-31T06:41:52.339Z,59.10
2019-03-31T06:42:52.286Z,59.70
2019-03-31T06:43:52.243Z,61.00
2019-03-31T06:44:52.207Z,60.70
2019-03-31T06:45:52.193Z,59.50
2019-03-31T06:46:52.128Z,60.80
2019-03-31T06:47:52.122Z,58.30
2019-03-31T06:48:52.058Z,60.50
2019-03-31T06:49:52.003Z,59.80
2019-03-31T06:50:51.963Z,58.90
2019-03-31T06:51:51.949Z,58.20
2019-03-31T06:52:51.887Z,59.50
2019-03-31T06:53:51.846Z,58.20
2019-03-31T06:54:51.803Z,58.70
2019-03-31T06:55:51.764Z,60.10
2019-03-31T06:56:51.734Z,58.60
2019-03-31T06:57:51.681Z,61.20
2019-03-31T06:58:51.665Z,59.30
2019-03-31T06:59:51.607Z,60.20
2019-03-31T07:00:51.553Z,60.60
2019-03-31T07:01:51.543Z,60.70
2019-03-31T07:02:51.470Z,60.50
2019-03-31T07:03:51.431Z,60.20
2019-03-31T07:05:00.947Z,61.50
2019-03-31T07:05:51.359Z,61.30
2019-03-31T07:06:51.351Z,62.00
2019-03-31T07:07:51.330Z,61.60
2019-03-31T07:08:51.226Z,62.40
2019-03-31T07:09:51.211Z,61.30
2019-03-31T07:10:51.251Z,61.90
2019-03-31T07:11:51.136Z,62.30
2019-03-31T07:12:51.087Z,62.30
2019-03-31T07:13:51.033Z,62.30
2019-03-31T07:14:50.991Z,62.00
2019-03-31T07:15:50.942Z,62.10
2019-03-31T07:16:50.907Z,62.50
2019-03-31T07:17:50.911Z,63.70
2019-03-31T07:18:50.832Z,62.90
2019-03-31T07:19:50.786Z,61.40
2019-03-31T07:20:50.753Z,61.30
2019-03-31T07:21:50.713Z,61.90
2019-03-31T07:22:50.743Z,62.50
2019-03-31T07:23:50.776Z,60.70
2019-03-31T07:24:50.590Z,59.00
2019-03-31T07:25:50.546Z,59.10
2019-03-31T07:26:50.514Z,58.50
2019-03-31T07:27:50.506Z,58.10
2019-03-31T07:28:50.439Z,56.90
2019-03-31T07:29:50.389Z,58.40
2019-03-31T07:30:50.352Z,58.60
2019-03-31T07:31:50.416Z,58.50
2019-03-31T07:32:50.278Z,59.40
2019-03-31T07:33:50.243Z,57.20
2019-03-31T07:34:50.182Z,56.60
2019-03-31T07:35:50.146Z,56.90
2019-03-31T07:36:50.182Z,56.70
2019-03-31T07:37:50.069Z,55.80
2019-03-31T07:38:50.074Z,55.10
2019-03-31T07:39:50.423Z,54.80
2019-03-31T07:40:49.948Z,55.00
2019-03-31T07:41:50.110Z,55.20
2019-03-31T07:42:51.207Z,56.20
2019-03-31T07:43:49.834Z,54.40
2019-03-31T07:44:49.821Z,54.00
2019-03-31T07:45:49.760Z,56.00
2019-03-31T07:46:49.712Z,55.20
2019-03-31T07:47:49.666Z,55.50
2019-03-31T07:48:49.639Z,53.90
2019-03-31T07:49:49.598Z,54.60
2019-03-31T07:50:49.577Z,56.50
2019-03-31T07:51:49.642Z,56.60
2019-03-31T07:52:49.494Z,55.90
2019-03-31T07:53:49.435Z,54.40
2019-03-31T07:54:49.599Z,55.80
2019-03-31T07:55:49.348Z,55.80
2019-03-31T07:56:49.332Z,55.80
2019-03-31T07:57:49.271Z,55.80
2019-03-31T07:58:49.270Z,56.00
2019-03-31T07:59:49.227Z,54.90
2019-03-31T08:00:49.150Z,53.90
2019-03-31T08:01:49.100Z,55.20
2019-03-31T08:02:49.109Z,55.30
2019-03-31T08:03:49.045Z,54.20
2019-03-31T08:04:48.997Z,54.40
2019-03-31T08:05:48.966Z,54.90
2019-03-31T08:06:48.908Z,54.30
2019-03-31T08:07:48.857Z,54.80
2019-03-31T08:08:48.839Z,55.20
2019-03-31T08:09:48.988Z,56.20
2019-03-31T08:10:48.769Z,55.00
2019-03-31T08:11:48.711Z,56.20
2019-03-31T08:12:48.735Z,55.80
2019-03-31T08:13:48.618Z,56.30
2019-03-31T08:14:48.565Z,57.70
2019-03-31T08:15:48.694Z,57.50
2019-03-31T08:16:48.516Z,58.10
2019-03-31T08:17:48.461Z,56.70
2019-03-31T08:18:48.483Z,56.10
2019-03-31T08:19:48.365Z,57.40
2019-03-31T08:20:48.372Z,56.10
2019-03-31T08:21:48.537Z,57.10
2019-03-31T08:22:48.243Z,58.30
2019-03-31T08:23:48.207Z,56.60
2019-03-31T08:24:48.336Z,57.00
2019-03-31T08:25:48.108Z,56.30
2019-03-31T08:26:48.141Z,56.40
2019-03-31T08:27:48.028Z,57.10
2019-03-31T08:28:47.994Z,55.80
2019-03-31T08:29:55.643Z,56.70
2019-03-31T08:30:48.057Z,56.90
2019-03-31T08:31:47.873Z,56.80
2019-03-31T08:32:47.844Z,56.60
2019-03-31T08:33:47.952Z,56.80
2019-03-31T08:34:47.757Z,55.90
2019-03-31T08:35:48.028Z,56.10
2019-03-31T08:36:47.708Z,56.40
2019-03-31T08:37:47.608Z,57.20
2019-03-31T08:38:47.565Z,56.20
2019-03-31T08:39:47.536Z,55.70
2019-03-31T08:40:47.495Z,56.00
2019-03-31T08:41:47.447Z,56.90
2019-03-31T08:42:47.433Z,55.60
2019-03-31T08:43:47.360Z,56.40
2019-03-31T08:44:47.314Z,55.70
2019-03-31T08:45:47.266Z,54.60
2019-03-31T08:46:47.241Z,57.20
2019-03-31T08:47:47.243Z,56.20
2019-03-31T08:48:47.154Z,55.60
2019-03-31T08:49:47.112Z,55.60
2019-03-31T08:50:47.056Z,53.90
2019-03-31T08:51:47.037Z,55.10
2019-03-31T08:52:47.005Z,54.30
2019-03-31T08:53:46.953Z,52.80
2019-03-31T08:54:46.941Z,55.60
2019-03-31T08:55:46.859Z,53.90
2019-03-31T08:56:46.833Z,53.60
2019-03-31T08:57:46.993Z,53.30
2019-03-31T08:58:46.746Z,52.90
2019-03-31T08:59:46.681Z,54.20
2019-03-31T09:00:46.641Z,53.50
2019-03-31T09:01:46.634Z,52.80
2019-03-31T09:02:46.565Z,54.80
2019-03-31T09:03:46.540Z,53.40
2019-03-31T09:04:46.474Z,52.80
2019-03-31T09:06:00.691Z,52.60
2019-03-31T09:06:46.415Z,52.80
2019-03-31T09:07:46.357Z,51.80
2019-03-31T09:08:46.307Z,53.10
2019-03-31T09:09:46.258Z,52.20
2019-03-31T09:10:46.220Z,51.60
2019-03-31T09:11:46.208Z,51.70
2019-03-31T09:12:48.557Z,52.80
2019-03-31T09:13:46.097Z,51.70
2019-03-31T09:14:46.086Z,54.40
2019-03-31T09:15:46.031Z,53.30
2019-03-31T09:16:45.995Z,51.80
2019-03-31T09:17:45.937Z,52.80
2019-03-31T09:18:45.887Z,51.90
2019-03-31T09:19:45.841Z,52.00
2019-03-31T09:20:45.866Z,51.60
2019-03-31T09:21:45.863Z,52.30
2019-03-31T09:22:45.734Z,52.10
2019-03-31T09:23:45.671Z,52.00
2019-03-31T09:24:45.656Z,51.80
2019-03-31T09:25:47.604Z,52.20
2019-03-31T09:26:45.556Z,52.50
2019-03-31T09:27:45.597Z,50.20
2019-03-31T09:28:45.582Z,51.70
2019-03-31T09:29:45.427Z,51.30
2019-03-31T09:30:45.428Z,50.90
2019-03-31T09:31:45.412Z,51.40
2019-03-31T09:32:45.325Z,50.90
2019-03-31T09:33:45.265Z,50.50
2019-03-31T09:34:45.237Z,50.00
2019-03-31T09:35:45.201Z,48.20
2019-03-31T09:36:45.165Z,51.60
2019-03-31T09:37:45.083Z,51.10
2019-03-31T09:38:45.055Z,51.10
2019-03-31T09:39:45.007Z,49.70
2019-03-31T09:40:45.089Z,50.10
2019-03-31T09:41:44.943Z,49.30
2019-03-31T09:42:44.895Z,51.00
2019-03-31T09:43:44.898Z,50.40
2019-03-31T09:44:44.845Z,49.50
2019-03-31T09:45:44.894Z,49.90
2019-03-31T09:46:44.791Z,49.20
2019-03-31T09:47:44.671Z,48.50
2019-03-31T09:48:44.647Z,47.90
2019-03-31T09:49:44.634Z,47.50
2019-03-31T09:50:44.563Z,48.20
2019-03-31T09:51:44.529Z,47.50
2019-03-31T09:52:44.482Z,47.40
2019-03-31T09:53:44.485Z,45.20
2019-03-31T09:54:44.418Z,46.90
2019-03-31T09:55:44.396Z,45.30
2019-03-31T09:56:44.321Z,42.80
2019-03-31T09:57:44.305Z,44.40
2019-03-31T09:58:45.131Z,45.80
2019-03-31T09:59:44.169Z,44.80
2019-03-31T10:00:44.127Z,44.90
2019-03-31T10:01:44.208Z,43.60
2019-03-31T10:02:44.143Z,43.50
2019-03-31T10:03:44.188Z,44.00
2019-03-31T10:04:43.967Z,44.70
2019-03-31T10:05:47.477Z,42.50
2019-03-31T10:06:43.887Z,41.60
2019-03-31T10:07:43.866Z,41.80
2019-03-31T10:08:43.778Z,42.20
2019-03-31T10:09:43.729Z,42.00
2019-03-31T10:10:43.689Z,42.80
2019-03-31T10:11:43.648Z,42.80
2019-03-31T10:12:43.599Z,42.10
2019-03-31T10:13:43.603Z,40.70
2019-03-31T10:14:43.556Z,41.20
2019-03-31T10:15:43.522Z,40.50
2019-03-31T10:16:43.451Z,40.30
2019-03-31T10:17:43.412Z,41.00
2019-03-31T10:18:43.394Z,40.40
2019-03-31T10:19:43.336Z,39.30
2019-03-31T10:20:43.280Z,39.50
2019-03-31T10:21:43.230Z,38.00
2019-03-31T10:22:43.192Z,38.70
2019-03-31T10:23:43.142Z,39.30
2019-03-31T10:24:43.154Z,38.60
2019-03-31T10:25:43.073Z,39.00
2019-03-31T10:26:43.013Z,38.20
2019-03-31T10:27:42.975Z,37.30
2019-03-31T10:28:42.971Z,37.80
2019-03-31T10:29:42.922Z,36.20
2019-03-31T10:30:42.914Z,38.20
2019-03-31T10:31:42.821Z,34.90
2019-03-31T10:32:42.778Z,35.20
2019-03-31T10:33:42.742Z,35.20
2019-03-31T10:34:42.718Z,35.10
2019-03-31T10:35:42.655Z,34.60
2019-03-31T10:36:44.842Z,34.30
2019-03-31T10:37:42.575Z,33.40
2019-03-31T10:38:42.541Z,34.10
2019-03-31T10:39:42.550Z,33.40
2019-03-31T10:40:42.433Z,32.80
2019-03-31T10:41:42.397Z,33.90
2019-03-31T10:42:42.365Z,32.80
2019-03-31T10:43:42.318Z,32.00
2019-03-31T10:44:42.274Z,31.20
2019-03-31T10:45:42.261Z,31.50
2019-03-31T10:46:42.225Z,30.10
2019-03-31T10:47:42.158Z,31.10
2019-03-31T10:48:42.120Z,30.50
2019-03-31T10:49:42.087Z,29.90
2019-03-31T10:50:42.053Z,31.40
2019-03-31T10:51:42.014Z,29.90
2019-03-31T10:52:41.962Z,29.70
2019-03-31T10:53:41.898Z,29.00
2019-03-31T10:54:41.883Z,30.10
2019-03-31T10:55:41.823Z,29.30
2019-03-31T10:56:41.791Z,30.10
2019-03-31T10:57:41.770Z,28.40
2019-03-31T10:58:41.709Z,28.50
2019-03-31T10:59:41.672Z,28.80
2019-03-31T11:00:44.535Z,27.90
2019-03-31T11:01:41.605Z,28.60
2019-03-31T11:02:41.550Z,28.50
2019-03-31T11:03:41.523Z,28.50
2019-03-31T11:04:41.442Z,28.40
2019-03-31T11:05:41.418Z,29.30
2019-03-31T11:06:41.382Z,27.50
2019-03-31T11:07:41.346Z,28.10
2019-03-31T11:08:41.328Z,27.00
2019-03-31T11:09:41.260Z,27.60
2019-03-31T11:10:41.202Z,27.50
2019-03-31T11:11:41.166Z,27.10
2019-03-31T11:12:41.133Z,26.40
2019-03-31T11:13:41.090Z,26.50
2019-03-31T11:14:41.072Z,26.40
2019-03-31T11:15:40.998Z,27.20
2019-03-31T11:16:41.008Z,27.60
2019-03-31T11:17:40.924Z,27.30
2019-03-31T11:18:40.877Z,26.00
2019-03-31T11:19:40.845Z,27.20
2019-03-31T11:20:40.839Z,27.10
2019-03-31T11:21:40.768Z,26.50
2019-03-31T11:22:40.738Z,25.30
2019-03-31T11:23:40.674Z,26.30
2019-03-31T11:24:40.657Z,25.70
2019-03-31T11:25:40.590Z,27.00
2019-03-31T11:26:40.553Z,25.70
2019-03-31T11:27:43.727Z,26.30
2019-03-31T11:28:40.489Z,24.70
2019-03-31T11:29:40.469Z,24.20
2019-03-31T11:30:40.377Z,24.30
2019-03-31T11:31:40.359Z,24.50
2019-03-31T11:32:40.314Z,24.60
2019-03-31T11:33:40.265Z,24.00
2019-03-31T11:34:40.224Z,23.30
2019-03-31T11:35:40.233Z,23.50
2019-03-31T11:36:40.153Z,23.30
2019-03-31T11:37:40.113Z,23.00
2019-03-31T11:38:40.077Z,23.10
2019-03-31T11:39:40.052Z,22.40
2019-03-31T11:40:40.040Z,21.10
2019-03-31T11:41:39.978Z,20.90
2019-03-31T11:42:39.916Z,21.40
2019-03-31T11:43:39.873Z,23.00
2019-03-31T11:44:39.821Z,21.80
2019-03-31T11:45:39.819Z,22.50
2019-03-31T11:46:39.760Z,21.80
2019-03-31T11:47:39.711Z,22.00
2019-03-31T11:48:39.682Z,21.50
2019-03-31T11:49:39.643Z,20.70
2019-03-31T11:50:39.631Z,20.70
2019-03-31T11:51:39.558Z,20.80
2019-03-31T11:52:39.526Z,19.70
2019-03-31T11:53:39.495Z,19.70
2019-03-31T11:54:39.452Z,19.60
2019-03-31T11:55:39.429Z,19.30
2019-03-31T11:56:39.382Z,19.40
2019-03-31T11:57:39.326Z,19.40
2019-03-31T11:58:39.331Z,18.60
2019-03-31T11:59:39.251Z,18.10
2019-03-31T12:00:39.221Z,17.20
2019-03-31T12:01:39.183Z,17.90
2019-03-31T12:02:39.173Z,17.20
2019-03-31T12:03:39.106Z,16.80
2019-03-31T12:04:39.090Z,16.60
2019-03-31T12:05:39.099Z,16.70
2019-03-31T12:06:39.014Z,16.60
2019-03-31T12:07:46.611Z,16.80
2019-03-31T12:08:38.963Z,16.10
2019-03-31T12:09:38.900Z,16.50
2019-03-31T12:10:38.878Z,16.50
2019-03-31T12:11:38.852Z,16.40
2019-03-31T12:12:38.787Z,15.90
2019-03-31T12:13:38.766Z,15.70
2019-03-31T12:14:38.740Z,16.10
2019-03-31T12:15:38.699Z,15.90
2019-03-31T12:16:38.652Z,16.50
2019-03-31T12:17:38.606Z,16.80
2019-03-31T12:18:38.600Z,15.90
2019-03-31T12:19:38.558Z,15.40
2019-03-31T12:20:38.540Z,16.30
2019-03-31T12:21:38.494Z,16.00
2019-03-31T12:22:38.459Z,16.00
2019-03-31T12:23:38.413Z,16.20
2019-03-31T12:24:38.371Z,15.80
2019-03-31T12:25:38.337Z,16.10
2019-03-31T12:26:38.344Z,16.10
2019-03-31T12:27:38.287Z,16.10
2019-03-31T12:28:38.249Z,16.70
2019-03-31T12:29:38.203Z,17.30
2019-03-31T12:30:38.171Z,16.80
2019-03-31T12:31:38.150Z,16.60
2019-03-31T12:32:38.852Z,16.10
2019-03-31T12:33:38.083Z,16.00
2019-03-31T12:34:38.030Z,17.20
2019-03-31T12:35:37.989Z,17.10
2019-03-31T12:36:37.971Z,17.10
2019-03-31T12:37:42.914Z,16.80
2019-03-31T12:38:37.916Z,16.20
2019-03-31T12:39:37.854Z,16.20
2019-03-31T12:40:37.819Z,16.70
2019-03-31T12:41:37.783Z,16.60
2019-03-31T12:42:37.770Z,16.00
2019-03-31T12:43:37.748Z,16.60
2019-03-31T12:44:37.697Z,16.70
2019-03-31T12:45:37.657Z,17.00
2019-03-31T12:46:37.616Z,16.20
2019-03-31T12:47:37.587Z,16.50
2019-03-31T12:48:37.569Z,16.60
2019-03-31T12:49:37.497Z,16.50
2019-03-31T12:50:37.491Z,17.30
2019-03-31T12:51:37.455Z,17.00